sensor_id;sensor_type;location;lat;lon;timestamp;pressure;altitude;pressure_sealevel;temperature;humidity
12215;BME280;6170;42.206;24.142;2022-11-11T00:01:56;99951.53;;;9.32;79.54
12215;BME280;6170;42.206;24.142;2022-11-11T00:04:24;99935.44;;;9.16;79.79
12215;BME280;6170;42.206;24.142;2022-11-11T00:06:52;99952.16;;;9.02;80.16
12215;BME280;6170;42.206;24.142;2022-11-11T00:09:19;99946.47;;;9.05;80.53
12215;BME280;6170;42.206;24.142;2022-11-11T00:11:45;99945.97;;;8.93;80.62
12215;BME280;6170;42.206;24.142;2022-11-11T00:14:13;99973.06;;;9.31;79.76
12215;BME280;6170;42.206;24.142;2022-11-11T00:16:40;99941.47;;;9.10;80.04
12215;BME280;6170;42.206;24.142;2022-11-11T00:19:24;99924.09;;;9.06;79.51
12215;BME280;6170;42.206;24.142;2022-11-11T00:22:18;99934.44;;;9.01;79.63
12215;BME280;6170;42.206;24.142;2022-11-11T00:25:09;99929.28;;;9.24;79.54
12215;BME280;6170;42.206;24.142;2022-11-11T00:27:38;99934.44;;;9.25;79.10
12215;BME280;6170;42.206;24.142;2022-11-11T00:30:09;99930.81;;;9.42;78.61
12215;BME280;6170;42.206;24.142;2022-11-11T00:32:36;99914.75;;;9.51;78.16
12215;BME280;6170;42.206;24.142;2022-11-11T00:35:03;99931.78;;;9.58;77.55
12215;BME280;6170;42.206;24.142;2022-11-11T00:37:47;99931.66;;;9.51;77.38
12215;BME280;6170;42.206;24.142;2022-11-11T00:40:15;99930.63;;;9.28;78.44
12215;BME280;6170;42.206;24.142;2022-11-11T00:42:42;99911.03;;;8.95;78.85
12215;BME280;6170;42.206;24.142;2022-11-11T00:45:11;99917.53;;;8.92;78.57
12215;BME280;6170;42.206;24.142;2022-11-11T00:47:38;99914.03;;;8.92;78.92
12215;BME280;6170;42.206;24.142;2022-11-11T00:50:23;99916.22;;;8.96;79.23
12215;BME280;6170;42.206;24.142;2022-11-11T00:53:10;99920.94;;;9.27;79.12
12215;BME280;6170;42.206;24.142;2022-11-11T00:55:37;99912.75;;;9.44;78.55
12215;BME280;6170;42.206;24.142;2022-11-11T00:58:03;99907.69;;;9.66;77.44
12215;BME280;6170;42.206;24.142;2022-11-11T01:00:31;99915.06;;;9.64;77.09
12215;BME280;6170;42.206;24.142;2022-11-11T01:02:58;99948.16;;;9.87;77.32
12215;BME280;6170;42.206;24.142;2022-11-11T01:05:25;99910.06;;;9.44;77.78
12215;BME280;6170;42.206;24.142;2022-11-11T01:07:52;99915.38;;;8.96;77.75
12215;BME280;6170;42.206;24.142;2022-11-11T01:10:19;99912.50;;;8.31;79.47
12215;BME280;6170;42.206;24.142;2022-11-11T01:13:00;99907.41;;;8.20;80.68
12215;BME280;6170;42.206;24.142;2022-11-11T01:15:38;99908.72;;;8.16;80.81
12215;BME280;6170;42.206;24.142;2022-11-11T01:18:06;99915.31;;;8.30;80.64
12215;BME280;6170;42.206;24.142;2022-11-11T01:20:34;99928.75;;;8.20;80.68
12215;BME280;6170;42.206;24.142;2022-11-11T01:23:02;99911.97;;;8.02;80.87
12215;BME280;6170;42.206;24.142;2022-11-11T01:25:32;99902.88;;;8.12;80.85
12215;BME280;6170;42.206;24.142;2022-11-11T01:27:58;99912.63;;;7.96;81.86
12215;BME280;6170;42.206;24.142;2022-11-11T01:30:25;99908.00;;;8.06;81.77
12215;BME280;6170;42.206;24.142;2022-11-11T01:32:53;99918.66;;;8.06;81.26
12215;BME280;6170;42.206;24.142;2022-11-11T01:35:20;99905.25;;;7.90;81.73
12215;BME280;6170;42.206;24.142;2022-11-11T01:37:47;99902.34;;;8.09;81.49
12215;BME280;6170;42.206;24.142;2022-11-11T01:40:14;99904.75;;;8.28;82.27
12215;BME280;6170;42.206;24.142;2022-11-11T01:42:48;99921.53;;;8.88;82.40
12215;BME280;6170;42.206;24.142;2022-11-11T01:45:46;99936.66;;;9.38;81.01
12215;BME280;6170;42.206;24.142;2022-11-11T01:48:17;99897.50;;;9.53;79.45
12215;BME280;6170;42.206;24.142;2022-11-11T01:51:04;99881.59;;;9.76;78.40
12215;BME280;6170;42.206;24.142;2022-11-11T01:53:32;99897.44;;;10.02;78.07
12215;BME280;6170;42.206;24.142;2022-11-11T01:56:00;99901.19;;;10.40;76.97
12215;BME280;6170;42.206;24.142;2022-11-11T01:58:28;99892.50;;;10.38;76.59
12215;BME280;6170;42.206;24.142;2022-11-11T02:00:56;99889.50;;;10.32;76.60
12215;BME280;6170;42.206;24.142;2022-11-11T02:03:27;99902.63;;;10.50;75.97
12215;BME280;6170;42.206;24.142;2022-11-11T02:05:56;99899.91;;;10.58;75.97
12215;BME280;6170;42.206;24.142;2022-11-11T02:08:26;99893.59;;;10.51;76.28
12215;BME280;6170;42.206;24.142;2022-11-11T02:11:02;99939.19;;;10.82;76.38
12215;BME280;6170;42.206;24.142;2022-11-11T02:13:30;99904.00;;;10.77;75.51
12215;BME280;6170;42.206;24.142;2022-11-11T02:16:15;99902.78;;;10.88;75.21
12215;BME280;6170;42.206;24.142;2022-11-11T02:18:43;99908.00;;;10.81;75.39
12215;BME280;6170;42.206;24.142;2022-11-11T02:21:13;99909.84;;;10.80;75.69
12215;BME280;6170;42.206;24.142;2022-11-11T02:23:51;99903.16;;;11.07;75.10
12215;BME280;6170;42.206;24.142;2022-11-11T02:26:18;99900.16;;;11.02;75.55
12215;BME280;6170;42.206;24.142;2022-11-11T02:28:48;99907.97;;;11.12;74.91
12215;BME280;6170;42.206;24.142;2022-11-11T02:31:17;99910.25;;;11.23;74.48
12215;BME280;6170;42.206;24.142;2022-11-11T02:33:43;99907.28;;;11.41;73.73
12215;BME280;6170;42.206;24.142;2022-11-11T02:36:13;99905.59;;;11.17;74.94
12215;BME280;6170;42.206;24.142;2022-11-11T02:38:42;99906.50;;;11.55;73.84
12215;BME280;6170;42.206;24.142;2022-11-11T02:41:10;99920.38;;;11.81;72.88
12215;BME280;6170;42.206;24.142;2022-11-11T02:43:54;99914.25;;;11.64;73.55
12215;BME280;6170;42.206;24.142;2022-11-11T02:46:20;99920.38;;;11.58;74.19
12215;BME280;6170;42.206;24.142;2022-11-11T02:48:47;99911.56;;;11.64;73.75
12215;BME280;6170;42.206;24.142;2022-11-11T02:51:14;99940.56;;;11.69;74.30
12215;BME280;6170;42.206;24.142;2022-11-11T02:53:41;99916.72;;;11.51;74.59
12215;BME280;6170;42.206;24.142;2022-11-11T02:56:07;99914.59;;;11.47;74.30
12215;BME280;6170;42.206;24.142;2022-11-11T02:58:35;99952.88;;;11.86;74.14
12215;BME280;6170;42.206;24.142;2022-11-11T03:01:02;99913.25;;;11.65;74.02
12215;BME280;6170;42.206;24.142;2022-11-11T03:03:29;99907.84;;;11.51;73.81
12215;BME280;6170;42.206;24.142;2022-11-11T03:05:56;99926.47;;;11.52;74.89
12215;BME280;6170;42.206;24.142;2022-11-11T03:08:22;99918.22;;;11.54;74.41
12215;BME280;6170;42.206;24.142;2022-11-11T03:10:49;99904.97;;;11.75;73.42
12215;BME280;6170;42.206;24.142;2022-11-11T03:13:16;99919.28;;;11.90;73.18
12215;BME280;6170;42.206;24.142;2022-11-11T03:15:44;99906.09;;;11.81;73.29
12215;BME280;6170;42.206;24.142;2022-11-11T03:18:11;99902.25;;;11.98;72.68
12215;BME280;6170;42.206;24.142;2022-11-11T03:20:36;99902.25;;;11.98;73.07
12215;BME280;6170;42.206;24.142;2022-11-11T03:23:20;99913.91;;;11.90;73.48
12215;BME280;6170;42.206;24.142;2022-11-11T03:25:48;99912.88;;;11.91;73.02
12215;BME280;6170;42.206;24.142;2022-11-11T03:28:16;99918.41;;;11.75;73.33
12215;BME280;6170;42.206;24.142;2022-11-11T03:30:46;99908.25;;;11.85;73.39
12215;BME280;6170;42.206;24.142;2022-11-11T03:33:14;99879.66;;;11.55;73.51
12215;BME280;6170;42.206;24.142;2022-11-11T03:35:41;99922.03;;;11.82;73.93
12215;BME280;6170;42.206;24.142;2022-11-11T03:38:10;99920.09;;;11.31;72.30
12215;BME280;6170;42.206;24.142;2022-11-11T03:40:50;99906.66;;;10.85;72.51
12215;BME280;6170;42.206;24.142;2022-11-11T03:43:18;99909.00;;;10.49;73.93
12215;BME280;6170;42.206;24.142;2022-11-11T03:45:47;99913.03;;;10.53;74.11
12215;BME280;6170;42.206;24.142;2022-11-11T03:48:14;99910.19;;;10.47;74.92
12215;BME280;6170;42.206;24.142;2022-11-11T03:50:41;99908.03;;;10.42;75.28
12215;BME280;6170;42.206;24.142;2022-11-11T03:53:07;99936.13;;;10.54;76.41
12215;BME280;6170;42.206;24.142;2022-11-11T03:55:34;99946.81;;;10.62;77.08
12215;BME280;6170;42.206;24.142;2022-11-11T03:58:01;99912.53;;;10.50;77.30
12215;BME280;6170;42.206;24.142;2022-11-11T04:00:28;99914.34;;;10.57;77.76
12215;BME280;6170;42.206;24.142;2022-11-11T04:03:02;99917.56;;;10.84;78.12
12215;BME280;6170;42.206;24.142;2022-11-11T04:05:47;99918.41;;;11.07;77.77
12215;BME280;6170;42.206;24.142;2022-11-11T04:08:28;99921.78;;;11.32;77.65
12215;BME280;6170;42.206;24.142;2022-11-11T04:11:16;99933.13;;;11.56;76.37
12215;BME280;6170;42.206;24.142;2022-11-11T04:13:46;99927.66;;;11.73;76.15
12215;BME280;6170;42.206;24.142;2022-11-11T04:16:31;99923.31;;;11.49;76.95
12215;BME280;6170;42.206;24.142;2022-11-11T04:18:59;99921.13;;;11.67;76.61
12215;BME280;6170;42.206;24.142;2022-11-11T04:21:43;99946.31;;;11.66;76.55
12215;BME280;6170;42.206;24.142;2022-11-11T04:24:11;99944.75;;;11.71;76.78
12215;BME280;6170;42.206;24.142;2022-11-11T04:26:58;99959.81;;;11.81;76.39
12215;BME280;6170;42.206;24.142;2022-11-11T04:29:25;99923.63;;;11.68;76.34
12215;BME280;6170;42.206;24.142;2022-11-11T04:31:56;99933.81;;;11.81;76.61
12215;BME280;6170;42.206;24.142;2022-11-11T04:34:42;99941.78;;;12.04;75.73
12215;BME280;6170;42.206;24.142;2022-11-11T04:37:10;99951.25;;;12.14;75.30
12215;BME280;6170;42.206;24.142;2022-11-11T04:39:36;99944.09;;;11.92;75.82
12215;BME280;6170;42.206;24.142;2022-11-11T04:42:21;99943.06;;;11.93;75.31
12215;BME280;6170;42.206;24.142;2022-11-11T04:44:48;99949.47;;;11.92;76.68
12215;BME280;6170;42.206;24.142;2022-11-11T04:47:32;99927.13;;;11.77;76.43
12215;BME280;6170;42.206;24.142;2022-11-11T04:50:00;99946.34;;;12.03;76.38
12215;BME280;6170;42.206;24.142;2022-11-11T04:52:27;99941.03;;;11.95;76.90
12215;BME280;6170;42.206;24.142;2022-11-11T04:54:54;99933.81;;;11.96;76.89
12215;BME280;6170;42.206;24.142;2022-11-11T04:57:40;99938.84;;;11.99;76.84
12215;BME280;6170;42.206;24.142;2022-11-11T05:00:09;99928.91;;;11.99;77.41
12215;BME280;6170;42.206;24.142;2022-11-11T05:02:36;99936.06;;;12.07;76.48
12215;BME280;6170;42.206;24.142;2022-11-11T05:05:22;99938.38;;;12.10;77.02
12215;BME280;6170;42.206;24.142;2022-11-11T05:07:50;99945.97;;;12.06;76.87
12215;BME280;6170;42.206;24.142;2022-11-11T05:10:42;99945.44;;;12.26;76.22
12215;BME280;6170;42.206;24.142;2022-11-11T05:13:09;99943.47;;;12.20;76.54
12215;BME280;6170;42.206;24.142;2022-11-11T05:15:53;99956.63;;;12.14;77.03
12215;BME280;6170;42.206;24.142;2022-11-11T05:18:37;99951.25;;;12.14;76.57
12215;BME280;6170;42.206;24.142;2022-11-11T05:21:24;99954.31;;;12.11;77.11
12215;BME280;6170;42.206;24.142;2022-11-11T05:23:53;99947.56;;;12.15;76.81
12215;BME280;6170;42.206;24.142;2022-11-11T05:26:37;99956.56;;;12.37;76.66
12215;BME280;6170;42.206;24.142;2022-11-11T05:29:03;99947.09;;;12.27;76.91
12215;BME280;6170;42.206;24.142;2022-11-11T05:31:30;99961.94;;;12.37;77.00
12215;BME280;6170;42.206;24.142;2022-11-11T05:33:57;99961.25;;;12.35;76.62
12215;BME280;6170;42.206;24.142;2022-11-11T05:36:25;99962.75;;;12.38;76.38
12215;BME280;6170;42.206;24.142;2022-11-11T05:38:52;99977.56;;;12.48;76.44
12215;BME280;6170;42.206;24.142;2022-11-11T05:41:19;99959.25;;;12.37;76.94
12215;BME280;6170;42.206;24.142;2022-11-11T05:43:45;99970.91;;;12.44;76.21
12215;BME280;6170;42.206;24.142;2022-11-11T05:46:12;99969.25;;;12.73;75.26
12215;BME280;6170;42.206;24.142;2022-11-11T05:48:39;99971.88;;;13.02;74.21
12215;BME280;6170;42.206;24.142;2022-11-11T05:51:27;99965.22;;;13.34;73.34
12215;BME280;6170;42.206;24.142;2022-11-11T05:53:55;99972.47;;;13.76;72.18
12215;BME280;6170;42.206;24.142;2022-11-11T05:56:23;99968.53;;;14.34;70.03
12215;BME280;6170;42.206;24.142;2022-11-11T05:58:49;99974.47;;;14.44;69.64
12215;BME280;6170;42.206;24.142;2022-11-11T06:01:17;99973.91;;;14.55;69.07
12215;BME280;6170;42.206;24.142;2022-11-11T06:03:43;99980.53;;;15.00;67.87
12215;BME280;6170;42.206;24.142;2022-11-11T06:06:10;99995.56;;;15.16;67.72
12215;BME280;6170;42.206;24.142;2022-11-11T06:08:39;100003.06;;;15.20;67.22
12215;BME280;6170;42.206;24.142;2022-11-11T06:11:07;100005.09;;;15.86;65.92
12215;BME280;6170;42.206;24.142;2022-11-11T06:13:34;99997.28;;;15.30;66.64
12215;BME280;6170;42.206;24.142;2022-11-11T06:16:01;100007.19;;;15.84;66.03
12215;BME280;6170;42.206;24.142;2022-11-11T06:18:28;99995.16;;;15.93;65.64
12215;BME280;6170;42.206;24.142;2022-11-11T06:20:56;100002.41;;;15.86;65.52
12215;BME280;6170;42.206;24.142;2022-11-11T06:23:23;100009.31;;;15.27;67.46
12215;BME280;6170;42.206;24.142;2022-11-11T06:25:52;100004.28;;;16.05;65.56
12215;BME280;6170;42.206;24.142;2022-11-11T06:28:37;100010.09;;;17.25;62.91
12215;BME280;6170;42.206;24.142;2022-11-11T06:31:04;100016.19;;;17.52;61.34
12215;BME280;6170;42.206;24.142;2022-11-11T06:33:32;100002.28;;;17.80;60.45
12215;BME280;6170;42.206;24.142;2022-11-11T06:35:59;100006.72;;;18.49;59.23
12215;BME280;6170;42.206;24.142;2022-11-11T06:38:26;100012.63;;;17.65;60.89
12215;BME280;6170;42.206;24.142;2022-11-11T06:40:54;100004.66;;;16.61;63.68
12215;BME280;6170;42.206;24.142;2022-11-11T06:43:21;100001.53;;;16.71;64.41
12215;BME280;6170;42.206;24.142;2022-11-11T06:45:49;100005.06;;;18.48;60.93
12215;BME280;6170;42.206;24.142;2022-11-11T06:48:16;100009.47;;;19.21;57.97
12215;BME280;6170;42.206;24.142;2022-11-11T06:50:43;100010.53;;;18.66;59.04
12215;BME280;6170;42.206;24.142;2022-11-11T06:53:11;100023.13;;;19.15;58.31
12215;BME280;6170;42.206;24.142;2022-11-11T06:55:38;100017.94;;;19.13;58.13
12215;BME280;6170;42.206;24.142;2022-11-11T06:58:07;100019.53;;;18.66;58.78
12215;BME280;6170;42.206;24.142;2022-11-11T07:00:34;100023.25;;;17.53;61.50
12215;BME280;6170;42.206;24.142;2022-11-11T07:03:01;100022.50;;;16.95;63.01
12215;BME280;6170;42.206;24.142;2022-11-11T07:05:28;100047.75;;;16.76;64.00
12215;BME280;6170;42.206;24.142;2022-11-11T07:07:55;100032.56;;;16.29;64.80
12215;BME280;6170;42.206;24.142;2022-11-11T07:10:22;100008.22;;;15.89;65.76
12215;BME280;6170;42.206;24.142;2022-11-11T07:12:48;100022.59;;;16.23;65.33
12215;BME280;6170;42.206;24.142;2022-11-11T07:15:17;100042.75;;;16.07;65.69
12215;BME280;6170;42.206;24.142;2022-11-11T07:17:44;100052.31;;;16.29;65.41
12215;BME280;6170;42.206;24.142;2022-11-11T07:20:10;100041.09;;;16.26;65.65
12215;BME280;6170;42.206;24.142;2022-11-11T07:22:37;100040.91;;;16.01;66.04
12215;BME280;6170;42.206;24.142;2022-11-11T07:25:05;100040.06;;;16.07;65.98
12215;BME280;6170;42.206;24.142;2022-11-11T07:27:35;100048.13;;;15.81;66.44
12215;BME280;6170;42.206;24.142;2022-11-11T07:30:03;100060.81;;;15.80;67.11
12215;BME280;6170;42.206;24.142;2022-11-11T07:32:31;100047.28;;;15.80;66.78
12215;BME280;6170;42.206;24.142;2022-11-11T07:34:58;100053.75;;;15.79;67.33
12215;BME280;6170;42.206;24.142;2022-11-11T07:37:25;100052.97;;;16.05;67.46
12215;BME280;6170;42.206;24.142;2022-11-11T07:39:52;100040.91;;;16.01;66.91
12215;BME280;6170;42.206;24.142;2022-11-11T07:42:19;100042.34;;;16.36;66.45
12215;BME280;6170;42.206;24.142;2022-11-11T07:44:46;100055.88;;;16.43;65.73
12215;BME280;6170;42.206;24.142;2022-11-11T07:47:12;100040.66;;;16.75;65.19
12215;BME280;6170;42.206;24.142;2022-11-11T07:49:41;100046.28;;;16.73;64.95
12215;BME280;6170;42.206;24.142;2022-11-11T07:52:07;100030.69;;;16.29;65.38
12215;BME280;6170;42.206;24.142;2022-11-11T07:54:34;100042.97;;;16.25;66.02
12215;BME280;6170;42.206;24.142;2022-11-11T07:57:01;100047.56;;;16.18;66.01
12215;BME280;6170;42.206;24.142;2022-11-11T07:59:27;100031.31;;;16.11;65.87
12215;BME280;6170;42.206;24.142;2022-11-11T08:01:54;100038.81;;;15.96;66.52
12215;BME280;6170;42.206;24.142;2022-11-11T08:04:21;100032.38;;;16.04;66.26
12215;BME280;6170;42.206;24.142;2022-11-11T08:06:49;100029.44;;;15.92;66.45
12215;BME280;6170;42.206;24.142;2022-11-11T08:09:16;100034.84;;;15.86;66.46
12215;BME280;6170;42.206;24.142;2022-11-11T08:11:42;100027.53;;;15.73;67.25
12215;BME280;6170;42.206;24.142;2022-11-11T08:14:26;100047.88;;;15.62;67.32
12215;BME280;6170;42.206;24.142;2022-11-11T08:16:53;100040.59;;;15.63;67.51
12215;BME280;6170;42.206;24.142;2022-11-11T08:19:20;100060.34;;;15.63;67.98
12215;BME280;6170;42.206;24.142;2022-11-11T08:21:48;100052.91;;;15.65;67.47
12215;BME280;6170;42.206;24.142;2022-11-11T08:24:15;100058.28;;;15.59;67.63
12215;BME280;6170;42.206;24.142;2022-11-11T08:26:43;100072.72;;;15.38;68.64
12215;BME280;6170;42.206;24.142;2022-11-11T08:29:09;100056.97;;;15.48;68.17
12215;BME280;6170;42.206;24.142;2022-11-11T08:31:36;100075.03;;;15.48;68.14
12215;BME280;6170;42.206;24.142;2022-11-11T08:34:03;100107.78;;;15.66;68.76
12215;BME280;6170;42.206;24.142;2022-11-11T08:36:30;100075.56;;;15.78;68.15
12215;BME280;6170;42.206;24.142;2022-11-11T08:38:58;100084.31;;;15.86;67.87
12215;BME280;6170;42.206;24.142;2022-11-11T08:41:25;100083.94;;;15.96;67.64
12215;BME280;6170;42.206;24.142;2022-11-11T08:43:52;100092.25;;;15.94;67.34
12215;BME280;6170;42.206;24.142;2022-11-11T08:46:20;100088.69;;;15.87;67.21
12215;BME280;6170;42.206;24.142;2022-11-11T08:48:47;100090.38;;;15.95;67.24
12215;BME280;6170;42.206;24.142;2022-11-11T08:51:15;100094.25;;;15.66;67.46
12215;BME280;6170;42.206;24.142;2022-11-11T08:53:42;100101.13;;;15.62;67.80
12215;BME280;6170;42.206;24.142;2022-11-11T08:56:10;100120.59;;;15.51;68.24
12215;BME280;6170;42.206;24.142;2022-11-11T08:58:37;100099.75;;;15.45;68.00
12215;BME280;6170;42.206;24.142;2022-11-11T09:01:09;100096.31;;;15.64;67.94
12215;BME280;6170;42.206;24.142;2022-11-11T09:03:38;100115.75;;;15.40;68.81
12215;BME280;6170;42.206;24.142;2022-11-11T09:06:07;100102.63;;;15.37;68.78
12215;BME280;6170;42.206;24.142;2022-11-11T09:08:34;100106.88;;;15.52;68.68
12215;BME280;6170;42.206;24.142;2022-11-11T09:11:01;100119.66;;;15.37;69.08
12215;BME280;6170;42.206;24.142;2022-11-11T09:13:29;100115.47;;;15.28;69.64
12215;BME280;6170;42.206;24.142;2022-11-11T09:15:56;100119.56;;;15.58;68.56
12215;BME280;6170;42.206;24.142;2022-11-11T09:18:24;100123.19;;;15.38;69.29
12215;BME280;6170;42.206;24.142;2022-11-11T09:20:51;100103.38;;;15.17;69.12
12215;BME280;6170;42.206;24.142;2022-11-11T09:23:18;100124.44;;;15.35;69.15
12215;BME280;6170;42.206;24.142;2022-11-11T09:25:44;100120.91;;;15.35;69.63
12215;BME280;6170;42.206;24.142;2022-11-11T09:28:11;100106.75;;;15.26;69.37
12215;BME280;6170;42.206;24.142;2022-11-11T09:30:40;100121.28;;;15.25;70.01
12215;BME280;6170;42.206;24.142;2022-11-11T09:33:06;100125.91;;;15.38;69.73
12215;BME280;6170;42.206;24.142;2022-11-11T09:35:36;100124.69;;;15.47;69.45
12215;BME280;6170;42.206;24.142;2022-11-11T09:38:03;100123.72;;;15.20;69.56
12215;BME280;6170;42.206;24.142;2022-11-11T09:40:42;100114.53;;;15.08;69.74
12215;BME280;6170;42.206;24.142;2022-11-11T09:43:18;100115.19;;;15.16;69.63
12215;BME280;6170;42.206;24.142;2022-11-11T09:46:00;100117.22;;;15.08;69.73
12215;BME280;6170;42.206;24.142;2022-11-11T09:48:40;100117.47;;;15.13;69.60
12215;BME280;6170;42.206;24.142;2022-11-11T09:51:16;100114.06;;;14.98;69.96
12215;BME280;6170;42.206;24.142;2022-11-11T09:53:46;100152.78;;;15.18;69.90
12215;BME280;6170;42.206;24.142;2022-11-11T09:56:17;100128.81;;;15.02;69.88
12215;BME280;6170;42.206;24.142;2022-11-11T09:58:46;100113.88;;;15.06;69.80
12215;BME280;6170;42.206;24.142;2022-11-11T10:01:18;100115.63;;;15.13;69.12
12215;BME280;6170;42.206;24.142;2022-11-11T10:03:47;100109.38;;;15.13;69.42
12215;BME280;6170;42.206;24.142;2022-11-11T10:06:20;100109.13;;;15.08;69.98
12215;BME280;6170;42.206;24.142;2022-11-11T10:08:54;100101.47;;;15.11;69.33
12215;BME280;6170;42.206;24.142;2022-11-11T10:11:38;100094.75;;;15.01;69.68
12215;BME280;6170;42.206;24.142;2022-11-11T10:14:06;100076.38;;;15.17;69.82
12215;BME280;6170;42.206;24.142;2022-11-11T10:16:39;100098.66;;;15.33;68.81
12215;BME280;6170;42.206;24.142;2022-11-11T10:19:25;100073.75;;;15.37;69.08
12215;BME280;6170;42.206;24.142;2022-11-11T10:21:57;100103.81;;;15.62;68.77
12215;BME280;6170;42.206;24.142;2022-11-11T10:24:28;100097.41;;;15.89;67.57
12215;BME280;6170;42.206;24.142;2022-11-11T10:26:58;100100.34;;;15.94;67.33
12215;BME280;6170;42.206;24.142;2022-11-11T10:29:30;100091.81;;;15.84;67.55
12215;BME280;6170;42.206;24.142;2022-11-11T10:32:07;100098.06;;;15.98;67.42
12215;BME280;6170;42.206;24.142;2022-11-11T10:34:36;100084.75;;;16.03;67.51
12215;BME280;6170;42.206;24.142;2022-11-11T10:37:14;100100.59;;;16.06;66.35
12215;BME280;6170;42.206;24.142;2022-11-11T10:39:57;100118.56;;;16.59;65.52
12215;BME280;6170;42.206;24.142;2022-11-11T10:42:25;100109.25;;;17.26;64.41
12215;BME280;6170;42.206;24.142;2022-11-11T10:44:55;100086.53;;;17.27;63.36
12215;BME280;6170;42.206;24.142;2022-11-11T10:47:36;100094.03;;;17.32;63.11
12215;BME280;6170;42.206;24.142;2022-11-11T10:50:13;100071.69;;;16.85;64.02
12215;BME280;6170;42.206;24.142;2022-11-11T10:52:44;100080.00;;;16.90;63.49
12215;BME280;6170;42.206;24.142;2022-11-11T10:55:17;100080.63;;;16.86;64.08
12215;BME280;6170;42.206;24.142;2022-11-11T10:57:50;100077.50;;;16.56;64.28
12215;BME280;6170;42.206;24.142;2022-11-11T11:00:19;100076.69;;;16.09;65.43
12215;BME280;6170;42.206;24.142;2022-11-11T11:02:54;100078.97;;;16.26;65.64
12215;BME280;6170;42.206;24.142;2022-11-11T11:05:26;100080.22;;;16.49;65.12
12215;BME280;6170;42.206;24.142;2022-11-11T11:07:58;100101.66;;;16.90;64.55
12215;BME280;6170;42.206;24.142;2022-11-11T11:10:32;100100.97;;;17.15;63.07
12215;BME280;6170;42.206;24.142;2022-11-11T11:13:04;100062.13;;;16.63;63.83
12215;BME280;6170;42.206;24.142;2022-11-11T11:15:36;100058.78;;;16.81;63.84
12215;BME280;6170;42.206;24.142;2022-11-11T11:18:08;100064.31;;;17.05;63.73
12215;BME280;6170;42.206;24.142;2022-11-11T11:20:36;100063.97;;;16.69;64.08
12215;BME280;6170;42.206;24.142;2022-11-11T11:23:03;100056.28;;;16.66;63.70
12215;BME280;6170;42.206;24.142;2022-11-11T11:25:31;100064.63;;;16.45;64.10
12215;BME280;6170;42.206;24.142;2022-11-11T11:28:07;100054.63;;;16.39;64.42
12215;BME280;6170;42.206;24.142;2022-11-11T11:30:34;100051.72;;;16.21;64.91
12215;BME280;6170;42.206;24.142;2022-11-11T11:33:03;100052.75;;;16.13;64.69
12215;BME280;6170;42.206;24.142;2022-11-11T11:35:34;100043.78;;;15.99;64.93
12215;BME280;6170;42.206;24.142;2022-11-11T11:38:02;100053.13;;;15.90;64.97
12215;BME280;6170;42.206;24.142;2022-11-11T11:40:44;100052.72;;;15.93;65.21
12215;BME280;6170;42.206;24.142;2022-11-11T11:43:31;100072.94;;;15.97;65.50
12215;BME280;6170;42.206;24.142;2022-11-11T11:45:59;100039.44;;;16.05;65.29
12215;BME280;6170;42.206;24.142;2022-11-11T11:48:38;100043.59;;;16.01;65.43
12215;BME280;6170;42.206;24.142;2022-11-11T11:51:17;100047.31;;;15.93;66.00
12215;BME280;6170;42.206;24.142;2022-11-11T11:53:55;100071.88;;;16.05;66.60
12215;BME280;6170;42.206;24.142;2022-11-11T11:56:34;100050.63;;;15.69;66.86
12215;BME280;6170;42.206;24.142;2022-11-11T11:59:08;100032.50;;;15.56;67.22
12215;BME280;6170;42.206;24.142;2022-11-11T12:01:43;100030.13;;;15.40;67.88
12215;BME280;6170;42.206;24.142;2022-11-11T12:07:37;100045.28;;;15.41;68.81
12215;BME280;6170;42.206;24.142;2022-11-11T12:10:17;100045.53;;;15.40;68.68
12215;BME280;6170;42.206;24.142;2022-11-11T12:12:55;100051.34;;;15.43;68.70
12215;BME280;6170;42.206;24.142;2022-11-11T12:15:32;100054.13;;;15.09;69.63
12215;BME280;6170;42.206;24.142;2022-11-11T12:18:13;100062.94;;;15.31;68.73
12215;BME280;6170;42.206;24.142;2022-11-11T12:20:46;100060.47;;;14.95;69.25
12215;BME280;6170;42.206;24.142;2022-11-11T12:23:50;100046.63;;;14.70;70.29
12215;BME280;6170;42.206;24.142;2022-11-11T12:26:24;100034.38;;;14.67;70.32
12215;BME280;6170;42.206;24.142;2022-11-11T12:29:11;100047.66;;;14.69;70.18
12215;BME280;6170;42.206;24.142;2022-11-11T12:31:54;100047.28;;;14.78;69.74
12215;BME280;6170;42.206;24.142;2022-11-11T12:34:40;100056.94;;;14.94;69.79
12215;BME280;6170;42.206;24.142;2022-11-11T12:37:24;100050.28;;;14.90;69.67
12215;BME280;6170;42.206;24.142;2022-11-11T12:40:13;100055.69;;;14.97;68.98
12215;BME280;6170;42.206;24.142;2022-11-11T12:42:53;100067.44;;;15.17;68.80
12215;BME280;6170;42.206;24.142;2022-11-11T12:45:32;100053.34;;;15.21;68.83
12215;BME280;6170;42.206;24.142;2022-11-11T12:48:05;100047.81;;;15.43;68.09
12215;BME280;6170;42.206;24.142;2022-11-11T12:50:46;100093.97;;;15.48;67.94
12215;BME280;6170;42.206;24.142;2022-11-11T12:53:23;100043.63;;;15.34;68.13
12215;BME280;6170;42.206;24.142;2022-11-11T12:56:06;100046.56;;;15.45;68.00
12215;BME280;6170;42.206;24.142;2022-11-11T12:58:46;100043.44;;;15.42;67.24
12215;BME280;6170;42.206;24.142;2022-11-11T13:01:20;100054.84;;;15.31;67.76
12215;BME280;6170;42.206;24.142;2022-11-11T13:03:58;100054.31;;;15.14;68.23
12215;BME280;6170;42.206;24.142;2022-11-11T13:06:46;100047.88;;;15.08;68.89
12215;BME280;6170;42.206;24.142;2022-11-11T13:09:50;100043.53;;;15.14;68.25
12215;BME280;6170;42.206;24.142;2022-11-11T13:12:30;100042.25;;;15.03;69.24
12215;BME280;6170;42.206;24.142;2022-11-11T13:15:03;100046.22;;;15.07;68.58
12215;BME280;6170;42.206;24.142;2022-11-11T13:17:31;100057.25;;;15.19;68.46
12215;BME280;6170;42.206;24.142;2022-11-11T13:20:02;100068.94;;;14.85;69.37
12215;BME280;6170;42.206;24.142;2022-11-11T13:22:32;100062.53;;;14.93;68.80